sensor_id;sensor_type;location;lat;lon;timestamp;P1;durP1;ratioP1;P2;durP2;ratioP2
12966;SDS011;6548;49.996;8.238;2023-03-26T00:00:08;3.97;;;1.10;;
12966;SDS011;6548;49.996;8.238;2023-03-26T00:02:39;6.53;;;1.23;;
12966;SDS011;6548;49.996;8.238;2023-03-26T00:05:10;3.95;;;1.20;;
12966;SDS011;6548;49.996;8.238;2023-03-26T00:07:41;2.55;;;1.15;;
12966;SDS011;6548;49.996;8.238;2023-03-26T00:10:08;3.25;;;1.23;;
12966;SDS011;6548;49.996;8.238;2023-03-26T00:12:34;3.78;;;1.40;;
12966;SDS011;6548;49.996;8.238;2023-03-26T00:15:00;3.42;;;1.23;;
12966;SDS011;6548;49.996;8.238;2023-03-26T00:17:26;4.10;;;1.25;;
12966;SDS011;6548;49.996;8.238;2023-03-26T00:19:52;6.93;;;1.40;;
12966;SDS011;6548;49.996;8.238;2023-03-26T00:22:17;2.15;;;0.82;;
12966;SDS011;6548;49.996;8.238;2023-03-26T00:24:43;2.47;;;0.57;;
12966;SDS011;6548;49.996;8.238;2023-03-26T00:27:12;2.53;;;0.90;;
12966;SDS011;6548;49.996;8.238;2023-03-26T00:29:38;3.42;;;1.00;;
12966;SDS011;6548;49.996;8.238;2023-03-26T00:32:06;3.97;;;0.60;;
12966;SDS011;6548;49.996;8.238;2023-03-26T00:34:42;3.13;;;1.40;;
12966;SDS011;6548;49.996;8.238;2023-03-26T00:37:13;5.05;;;0.88;;
12966;SDS011;6548;49.996;8.238;2023-03-26T00:40:09;3.28;;;0.95;;
12966;SDS011;6548;49.996;8.238;2023-03-26T00:42:52;3.80;;;0.98;;
12966;SDS011;6548;49.996;8.238;2023-03-26T00:45:21;4.47;;;1.27;;
12966;SDS011;6548;49.996;8.238;2023-03-26T00:47:47;7.38;;;0.95;;
12966;SDS011;6548;49.996;8.238;2023-03-26T00:50:12;10.32;;;1.85;;
12966;SDS011;6548;49.996;8.238;2023-03-26T00:52:43;7.30;;;1.70;;
12966;SDS011;6548;49.996;8.238;2023-03-26T00:55:10;5.30;;;1.15;;
12966;SDS011;6548;49.996;8.238;2023-03-26T00:57:36;2.70;;;1.20;;
12966;SDS011;6548;49.996;8.238;2023-03-26T01:00:03;4.03;;;0.75;;
12966;SDS011;6548;49.996;8.238;2023-03-26T01:02:35;8.32;;;1.35;;
12966;SDS011;6548;49.996;8.238;2023-03-26T01:05:37;6.93;;;1.25;;
12966;SDS011;6548;49.996;8.238;2023-03-26T01:10:56;2.72;;;0.85;;
12966;SDS011;6548;49.996;8.238;2023-03-26T01:13:36;5.63;;;0.85;;
12966;SDS011;6548;49.996;8.238;2023-03-26T01:16:04;2.38;;;1.35;;
12966;SDS011;6548;49.996;8.238;2023-03-26T01:18:44;3.42;;;1.40;;
12966;SDS011;6548;49.996;8.238;2023-03-26T01:21:10;6.95;;;1.30;;
12966;SDS011;6548;49.996;8.238;2023-03-26T01:23:44;5.07;;;1.00;;
12966;SDS011;6548;49.996;8.238;2023-03-26T01:26:19;2.25;;;0.52;;
12966;SDS011;6548;49.996;8.238;2023-03-26T01:28:58;7.88;;;1.65;;
12966;SDS011;6548;49.996;8.238;2023-03-26T01:31:29;6.07;;;1.30;;
12966;SDS011;6548;49.996;8.238;2023-03-26T01:36:48;2.88;;;1.15;;
12966;SDS011;6548;49.996;8.238;2023-03-26T01:42:40;3.92;;;1.80;;
12966;SDS011;6548;49.996;8.238;2023-03-26T01:45:13;7.07;;;2.00;;
12966;SDS011;6548;49.996;8.238;2023-03-26T01:47:46;7.22;;;1.63;;
12966;SDS011;6548;49.996;8.238;2023-03-26T01:50:12;3.58;;;1.27;;
12966;SDS011;6548;49.996;8.238;2023-03-26T01:52:38;6.93;;;1.73;;
12966;SDS011;6548;49.996;8.238;2023-03-26T01:55:04;9.45;;;1.48;;
12966;SDS011;6548;49.996;8.238;2023-03-26T02:00:34;7.65;;;1.52;;
12966;SDS011;6548;49.996;8.238;2023-03-26T02:03:13;7.63;;;1.20;;
12966;SDS011;6548;49.996;8.238;2023-03-26T02:08:35;10.32;;;1.80;;
12966;SDS011;6548;49.996;8.238;2023-03-26T02:11:09;6.10;;;1.42;;
12966;SDS011;6548;49.996;8.238;2023-03-26T02:13:40;3.28;;;1.73;;
12966;SDS011;6548;49.996;8.238;2023-03-26T02:16:09;7.87;;;1.70;;
12966;SDS011;6548;49.996;8.238;2023-03-26T02:18:40;6.15;;;1.85;;
12966;SDS011;6548;49.996;8.238;2023-03-26T02:21:09;5.47;;;1.40;;
12966;SDS011;6548;49.996;8.238;2023-03-26T02:23:44;7.78;;;1.48;;
12966;SDS011;6548;49.996;8.238;2023-03-26T02:26:15;7.18;;;1.50;;
12966;SDS011;6548;49.996;8.238;2023-03-26T02:28:43;3.47;;;1.45;;
12966;SDS011;6548;49.996;8.238;2023-03-26T02:31:08;8.68;;;1.90;;
12966;SDS011;6548;49.996;8.238;2023-03-26T02:33:35;5.22;;;1.42;;
12966;SDS011;6548;49.996;8.238;2023-03-26T02:36:01;6.68;;;1.60;;
12966;SDS011;6548;49.996;8.238;2023-03-26T02:38:28;3.05;;;1.17;;
12966;SDS011;6548;49.996;8.238;2023-03-26T02:40:59;8.35;;;2.80;;
12966;SDS011;6548;49.996;8.238;2023-03-26T02:43:25;5.13;;;1.52;;
12966;SDS011;6548;49.996;8.238;2023-03-26T02:45:51;5.75;;;1.55;;
12966;SDS011;6548;49.996;8.238;2023-03-26T02:48:16;6.97;;;2.00;;
12966;SDS011;6548;49.996;8.238;2023-03-26T02:50:43;2.85;;;1.42;;
12966;SDS011;6548;49.996;8.238;2023-03-26T02:53:10;7.30;;;1.63;;
12966;SDS011;6548;49.996;8.238;2023-03-26T02:55:37;7.45;;;1.70;;
12966;SDS011;6548;49.996;8.238;2023-03-26T02:58:03;7.90;;;1.95;;
12966;SDS011;6548;49.996;8.238;2023-03-26T03:00:30;3.60;;;1.67;;
12966;SDS011;6548;49.996;8.238;2023-03-26T03:02:57;11.43;;;2.80;;
12966;SDS011;6548;49.996;8.238;2023-03-26T03:05:24;7.72;;;1.38;;
12966;SDS011;6548;49.996;8.238;2023-03-26T03:07:51;9.10;;;1.60;;
12966;SDS011;6548;49.996;8.238;2023-03-26T03:10:21;4.20;;;1.60;;
12966;SDS011;6548;49.996;8.238;2023-03-26T03:12:48;11.15;;;1.83;;
12966;SDS011;6548;49.996;8.238;2023-03-26T03:15:14;9.52;;;2.25;;
12966;SDS011;6548;49.996;8.238;2023-03-26T03:17:39;7.03;;;1.80;;
12966;SDS011;6548;49.996;8.238;2023-03-26T03:20:05;8.02;;;1.85;;
12966;SDS011;6548;49.996;8.238;2023-03-26T03:22:35;4.70;;;1.65;;
12966;SDS011;6548;49.996;8.238;2023-03-26T03:25:02;8.00;;;1.33;;
12966;SDS011;6548;49.996;8.238;2023-03-26T03:27:29;7.75;;;1.60;;
12966;SDS011;6548;49.996;8.238;2023-03-26T03:29:54;4.15;;;1.45;;
12966;SDS011;6548;49.996;8.238;2023-03-26T03:32:24;5.72;;;1.80;;
12966;SDS011;6548;49.996;8.238;2023-03-26T03:34:49;6.78;;;2.10;;
12966;SDS011;6548;49.996;8.238;2023-03-26T03:37:16;8.15;;;1.25;;
12966;SDS011;6548;49.996;8.238;2023-03-26T03:39:42;8.43;;;1.90;;
12966;SDS011;6548;49.996;8.238;2023-03-26T03:42:08;8.38;;;1.52;;
12966;SDS011;6548;49.996;8.238;2023-03-26T03:44:34;7.93;;;2.08;;
12966;SDS011;6548;49.996;8.238;2023-03-26T03:46:59;8.93;;;1.80;;
12966;SDS011;6548;49.996;8.238;2023-03-26T03:49:25;6.45;;;2.85;;
12966;SDS011;6548;49.996;8.238;2023-03-26T03:51:51;7.80;;;1.40;;
12966;SDS011;6548;49.996;8.238;2023-03-26T03:54:16;11.23;;;2.20;;
12966;SDS011;6548;49.996;8.238;2023-03-26T03:56:42;11.68;;;3.58;;
12966;SDS011;6548;49.996;8.238;2023-03-26T03:59:09;8.30;;;1.58;;
12966;SDS011;6548;49.996;8.238;2023-03-26T04:01:35;5.40;;;2.42;;
12966;SDS011;6548;49.996;8.238;2023-03-26T04:04:01;4.60;;;2.00;;
12966;SDS011;6548;49.996;8.238;2023-03-26T04:06:27;6.63;;;1.73;;
12966;SDS011;6548;49.996;8.238;2023-03-26T04:08:54;8.40;;;2.10;;
12966;SDS011;6548;49.996;8.238;2023-03-26T04:11:20;4.68;;;1.67;;
12966;SDS011;6548;49.996;8.238;2023-03-26T04:13:46;6.00;;;1.90;;
12966;SDS011;6548;49.996;8.238;2023-03-26T04:16:12;8.50;;;1.70;;
12966;SDS011;6548;49.996;8.238;2023-03-26T04:18:38;9.48;;;2.60;;
12966;SDS011;6548;49.996;8.238;2023-03-26T04:21:04;5.85;;;1.80;;
12966;SDS011;6548;49.996;8.238;2023-03-26T04:23:31;8.45;;;1.73;;
12966;SDS011;6548;49.996;8.238;2023-03-26T04:25:59;5.80;;;1.58;;
12966;SDS011;6548;49.996;8.238;2023-03-26T04:28:30;7.75;;;2.20;;
12966;SDS011;6548;49.996;8.238;2023-03-26T04:30:58;6.35;;;1.50;;
12966;SDS011;6548;49.996;8.238;2023-03-26T04:33:28;4.13;;;1.63;;
12966;SDS011;6548;49.996;8.238;2023-03-26T04:35:56;8.18;;;1.95;;
12966;SDS011;6548;49.996;8.238;2023-03-26T04:38:30;6.93;;;2.08;;
12966;SDS011;6548;49.996;8.238;2023-03-26T04:41:01;3.95;;;1.67;;
12966;SDS011;6548;49.996;8.238;2023-03-26T04:43:27;12.93;;;2.95;;
12966;SDS011;6548;49.996;8.238;2023-03-26T04:45:55;10.25;;;2.67;;
12966;SDS011;6548;49.996;8.238;2023-03-26T04:48:21;10.07;;;1.70;;
12966;SDS011;6548;49.996;8.238;2023-03-26T04:50:46;5.43;;;1.85;;
12966;SDS011;6548;49.996;8.238;2023-03-26T04:53:14;7.68;;;1.67;;
12966;SDS011;6548;49.996;8.238;2023-03-26T04:55:44;6.07;;;1.88;;
12966;SDS011;6548;49.996;8.238;2023-03-26T04:58:15;5.57;;;2.22;;
12966;SDS011;6548;49.996;8.238;2023-03-26T05:00:41;5.72;;;2.03;;
12966;SDS011;6548;49.996;8.238;2023-03-26T05:03:10;5.22;;;2.50;;
12966;SDS011;6548;49.996;8.238;2023-03-26T05:05:36;7.70;;;2.05;;
12966;SDS011;6548;49.996;8.238;2023-03-26T05:08:02;10.48;;;1.92;;
12966;SDS011;6548;49.996;8.238;2023-03-26T05:10:28;9.43;;;2.50;;
12966;SDS011;6548;49.996;8.238;2023-03-26T05:12:54;5.88;;;1.85;;
12966;SDS011;6548;49.996;8.238;2023-03-26T05:15:20;5.10;;;1.58;;
12966;SDS011;6548;49.996;8.238;2023-03-26T05:17:46;10.73;;;2.28;;
12966;SDS011;6548;49.996;8.238;2023-03-26T05:20:20;8.40;;;1.60;;
12966;SDS011;6548;49.996;8.238;2023-03-26T05:22:48;7.90;;;2.85;;
12966;SDS011;6548;49.996;8.238;2023-03-26T05:25:15;6.78;;;2.38;;
12966;SDS011;6548;49.996;8.238;2023-03-26T05:27:42;9.73;;;2.65;;
12966;SDS011;6548;49.996;8.238;2023-03-26T05:30:08;15.57;;;2.67;;
12966;SDS011;6548;49.996;8.238;2023-03-26T05:32:37;9.45;;;2.45;;
12966;SDS011;6548;49.996;8.238;2023-03-26T05:35:02;5.70;;;2.50;;
12966;SDS011;6548;49.996;8.238;2023-03-26T05:37:28;7.97;;;2.78;;
12966;SDS011;6548;49.996;8.238;2023-03-26T05:39:56;15.07;;;2.78;;
12966;SDS011;6548;49.996;8.238;2023-03-26T05:42:22;8.30;;;2.42;;
12966;SDS011;6548;49.996;8.238;2023-03-26T05:44:47;3.67;;;2.40;;
12966;SDS011;6548;49.996;8.238;2023-03-26T05:47:13;9.45;;;2.50;;
12966;SDS011;6548;49.996;8.238;2023-03-26T05:49:39;5.25;;;2.08;;
12966;SDS011;6548;49.996;8.238;2023-03-26T05:52:05;8.95;;;2.83;;
12966;SDS011;6548;49.996;8.238;2023-03-26T05:54:30;7.63;;;2.38;;
12966;SDS011;6548;49.996;8.238;2023-03-26T05:56:56;8.05;;;2.25;;
12966;SDS011;6548;49.996;8.238;2023-03-26T05:59:22;7.50;;;2.20;;
12966;SDS011;6548;49.996;8.238;2023-03-26T06:01:48;8.90;;;2.47;;
12966;SDS011;6548;49.996;8.238;2023-03-26T06:04:15;7.90;;;1.75;;
12966;SDS011;6548;49.996;8.238;2023-03-26T06:06:42;8.25;;;2.30;;
12966;SDS011;6548;49.996;8.238;2023-03-26T06:09:09;5.63;;;2.40;;
12966;SDS011;6548;49.996;8.238;2023-03-26T06:11:37;6.88;;;2.10;;
12966;SDS011;6548;49.996;8.238;2023-03-26T06:14:04;10.18;;;2.60;;
12966;SDS011;6548;49.996;8.238;2023-03-26T06:16:31;12.60;;;2.78;;
12966;SDS011;6548;49.996;8.238;2023-03-26T06:18:57;9.95;;;2.38;;
12966;SDS011;6548;49.996;8.238;2023-03-26T06:21:23;8.35;;;1.80;;
12966;SDS011;6548;49.996;8.238;2023-03-26T06:23:50;12.75;;;2.13;;
12966;SDS011;6548;49.996;8.238;2023-03-26T06:26:16;6.45;;;1.77;;
12966;SDS011;6548;49.996;8.238;2023-03-26T06:28:41;6.47;;;2.30;;
12966;SDS011;6548;49.996;8.238;2023-03-26T06:31:07;9.20;;;1.67;;
12966;SDS011;6548;49.996;8.238;2023-03-26T06:33:33;8.85;;;1.92;;
12966;SDS011;6548;49.996;8.238;2023-03-26T06:35:58;9.60;;;3.20;;
12966;SDS011;6548;49.996;8.238;2023-03-26T06:38:24;5.68;;;2.00;;
12966;SDS011;6548;49.996;8.238;2023-03-26T06:40:50;10.98;;;2.33;;
12966;SDS011;6548;49.996;8.238;2023-03-26T06:43:16;8.02;;;2.20;;
12966;SDS011;6548;49.996;8.238;2023-03-26T06:45:41;5.28;;;1.65;;
12966;SDS011;6548;49.996;8.238;2023-03-26T06:48:07;7.82;;;2.30;;
12966;SDS011;6548;49.996;8.238;2023-03-26T06:50:33;5.82;;;2.30;;
12966;SDS011;6548;49.996;8.238;2023-03-26T06:52:58;8.30;;;1.95;;
12966;SDS011;6548;49.996;8.238;2023-03-26T06:55:24;9.50;;;2.67;;
12966;SDS011;6548;49.996;8.238;2023-03-26T06:57:50;9.55;;;2.10;;
12966;SDS011;6548;49.996;8.238;2023-03-26T07:00:16;4.50;;;1.65;;
12966;SDS011;6548;49.996;8.238;2023-03-26T07:02:43;6.35;;;1.73;;
12966;SDS011;6548;49.996;8.238;2023-03-26T07:05:08;6.72;;;1.85;;
12966;SDS011;6548;49.996;8.238;2023-03-26T07:07:34;11.38;;;2.33;;
12966;SDS011;6548;49.996;8.238;2023-03-26T07:09:59;7.85;;;1.83;;
12966;SDS011;6548;49.996;8.238;2023-03-26T07:12:25;8.50;;;2.00;;
12966;SDS011;6548;49.996;8.238;2023-03-26T07:14:51;6.43;;;3.53;;
12966;SDS011;6548;49.996;8.238;2023-03-26T07:17:17;7.68;;;3.38;;
12966;SDS011;6548;49.996;8.238;2023-03-26T07:19:42;10.32;;;1.80;;
12966;SDS011;6548;49.996;8.238;2023-03-26T07:22:18;6.50;;;2.03;;
12966;SDS011;6548;49.996;8.238;2023-03-26T07:24:45;8.63;;;3.00;;
12966;SDS011;6548;49.996;8.238;2023-03-26T07:27:16;6.75;;;1.88;;
12966;SDS011;6548;49.996;8.238;2023-03-26T07:29:52;9.02;;;1.50;;
12966;SDS011;6548;49.996;8.238;2023-03-26T07:32:39;8.55;;;1.63;;
12966;SDS011;6548;49.996;8.238;2023-03-26T07:46:37;14.07;;;2.08;;
12966;SDS011;6548;49.996;8.238;2023-03-26T07:49:03;8.75;;;2.05;;
12966;SDS011;6548;49.996;8.238;2023-03-26T07:51:30;14.88;;;3.03;;
12966;SDS011;6548;49.996;8.238;2023-03-26T07:53:56;12.23;;;2.47;;
12966;SDS011;6548;49.996;8.238;2023-03-26T07:56:33;7.85;;;2.17;;
12966;SDS011;6548;49.996;8.238;2023-03-26T08:10:34;7.03;;;2.20;;
12966;SDS011;6548;49.996;8.238;2023-03-26T08:21:52;8.45;;;2.10;;
12966;SDS011;6548;49.996;8.238;2023-03-26T08:24:36;4.45;;;2.60;;
12966;SDS011;6548;49.996;8.238;2023-03-26T10:10:11;2.20;;;1.02;;
12966;SDS011;6548;49.996;8.238;2023-03-26T10:12:51;3.53;;;1.23;;
12966;SDS011;6548;49.996;8.238;2023-03-26T10:51:07;5.57;;;1.65;;
12966;SDS011;6548;49.996;8.238;2023-03-26T10:53:40;3.53;;;1.50;;
12966;SDS011;6548;49.996;8.238;2023-03-26T10:58:45;7.28;;;1.65;;
12966;SDS011;6548;49.996;8.238;2023-03-26T11:01:18;5.65;;;1.48;;
12966;SDS011;6548;49.996;8.238;2023-03-26T11:03:47;3.65;;;2.67;;
12966;SDS011;6548;49.996;8.238;2023-03-26T11:09:13;4.93;;;1.20;;
12966;SDS011;6548;49.996;8.238;2023-03-26T11:11:54;2.63;;;1.10;;
12966;SDS011;6548;49.996;8.238;2023-03-26T11:14:57;3.10;;;0.93;;
12966;SDS011;6548;49.996;8.238;2023-03-26T11:17:42;2.95;;;1.10;;
12966;SDS011;6548;49.996;8.238;2023-03-26T11:20:47;2.47;;;1.00;;
12966;SDS011;6548;49.996;8.238;2023-03-26T11:23:59;2.92;;;0.80;;
12966;SDS011;6548;49.996;8.238;2023-03-26T11:27:37;6.15;;;0.70;;
12966;SDS011;6548;49.996;8.238;2023-03-26T11:32:38;2.20;;;0.80;;
12966;SDS011;6548;49.996;8.238;2023-03-26T11:35:16;7.13;;;2.03;;
12966;SDS011;6548;49.996;8.238;2023-03-26T11:37:47;3.90;;;1.73;;
12966;SDS011;6548;49.996;8.238;2023-03-26T11:40:19;4.95;;;1.38;;
12966;SDS011;6548;49.996;8.238;2023-03-26T11:42:48;3.92;;;1.30;;
12966;SDS011;6548;49.996;8.238;2023-03-26T11:45:20;5.85;;;1.70;;
12966;SDS011;6548;49.996;8.238;2023-03-26T11:47:58;1.85;;;1.02;;
12966;SDS011;6548;49.996;8.238;2023-03-26T11:50:35;5.70;;;1.23;;
12966;SDS011;6548;49.996;8.238;2023-03-26T11:53:09;3.53;;;1.05;;
12966;SDS011;6548;49.996;8.238;2023-03-26T11:55:45;2.95;;;0.90;;
12966;SDS011;6548;49.996;8.238;2023-03-26T11:58:27;5.80;;;3.60;;
12966;SDS011;6548;49.996;8.238;2023-03-26T12:01:04;2.67;;;0.95;;
12966;SDS011;6548;49.996;8.238;2023-03-26T12:03:40;3.80;;;1.15;;
12966;SDS011;6548;49.996;8.238;2023-03-26T12:06:09;1.55;;;0.80;;
12966;SDS011;6548;49.996;8.238;2023-03-26T12:08:49;1.15;;;0.80;;
12966;SDS011;6548;49.996;8.238;2023-03-26T12:11:23;3.40;;;0.73;;
12966;SDS011;6548;49.996;8.238;2023-03-26T12:13:57;1.73;;;0.80;;
12966;SDS011;6548;49.996;8.238;2023-03-26T12:16:25;2.90;;;0.73;;
12966;SDS011;6548;49.996;8.238;2023-03-26T12:18:59;2.97;;;0.70;;
12966;SDS011;6548;49.996;8.238;2023-03-26T12:21:44;1.17;;;0.70;;
12966;SDS011;6548;49.996;8.238;2023-03-26T12:24:31;2.20;;;0.70;;
12966;SDS011;6548;49.996;8.238;2023-03-26T12:29:51;0.40;;;0.20;;
12966;SDS011;6548;49.996;8.238;2023-03-26T12:32:30;0.35;;;0.30;;
12966;SDS011;6548;49.996;8.238;2023-03-26T12:34:57;0.47;;;0.47;;
12966;SDS011;6548;49.996;8.238;2023-03-26T12:40:34;1.17;;;0.38;;
12966;SDS011;6548;49.996;8.238;2023-03-26T12:42:54;0.68;;;0.25;;
12966;SDS011;6548;49.996;8.238;2023-03-26T12:45:28;1.08;;;0.30;;
12966;SDS011;6548;49.996;8.238;2023-03-26T12:48:05;0.75;;;0.17;;
12966;SDS011;6548;49.996;8.238;2023-03-26T12:53:16;0.73;;;0.45;;
12966;SDS011;6548;49.996;8.238;2023-03-26T13:06:38;0.20;;;0.20;;
12966;SDS011;6548;49.996;8.238;2023-03-26T13:14:46;0.68;;;0.30;;
12966;SDS011;6548;49.996;8.238;2023-03-26T13:25:30;1.58;;;0.40;;
12966;SDS011;6548;49.996;8.238;2023-03-26T13:28:16;1.80;;;0.43;;
12966;SDS011;6548;49.996;8.238;2023-03-26T13:31:12;3.92;;;0.47;;
12966;SDS011;6548;49.996;8.238;2023-03-26T13:33:56;3.28;;;0.50;;
12966;SDS011;6548;49.996;8.238;2023-03-26T13:39:12;4.65;;;0.50;;
12966;SDS011;6548;49.996;8.238;2023-03-26T13:44:28;0.65;;;0.40;;
12966;SDS011;6548;49.996;8.238;2023-03-26T13:47:20;1.88;;;0.30;;
12966;SDS011;6548;49.996;8.238;2023-03-26T13:49:56;1.10;;;0.20;;
12966;SDS011;6548;49.996;8.238;2023-03-26T13:52:35;1.75;;;0.50;;
12966;SDS011;6548;49.996;8.238;2023-03-26T13:55:15;1.08;;;0.70;;
12966;SDS011;6548;49.996;8.238;2023-03-26T13:57:45;1.17;;;0.40;;
12966;SDS011;6548;49.996;8.238;2023-03-26T14:00:20;1.80;;;0.60;;
12966;SDS011;6548;49.996;8.238;2023-03-26T14:03:06;2.10;;;0.30;;
12966;SDS011;6548;49.996;8.238;2023-03-26T14:05:41;3.00;;;0.68;;
12966;SDS011;6548;49.996;8.238;2023-03-26T14:08:17;1.45;;;0.73;;
12966;SDS011;6548;49.996;8.238;2023-03-26T14:10:55;1.95;;;0.50;;
12966;SDS011;6548;49.996;8.238;2023-03-26T14:21:55;0.90;;;0.30;;
12966;SDS011;6548;49.996;8.238;2023-03-26T14:27:54;3.92;;;0.65;;
12966;SDS011;6548;49.996;8.238;2023-03-26T14:45:02;2.28;;;0.43;;
12966;SDS011;6548;49.996;8.238;2023-03-26T14:47:41;0.68;;;0.38;;
12966;SDS011;6548;49.996;8.238;2023-03-26T14:50:38;2.25;;;0.98;;
12966;SDS011;6548;49.996;8.238;2023-03-26T14:53:33;2.15;;;0.40;;
12966;SDS011;6548;49.996;8.238;2023-03-26T14:59:48;1.75;;;0.45;;
12966;SDS011;6548;49.996;8.238;2023-03-26T15:07:25;2.03;;;0.30;;
12966;SDS011;6548;49.996;8.238;2023-03-26T15:27:05;0.43;;;0.40;;
12966;SDS011;6548;49.996;8.238;2023-03-26T15:38:33;0.75;;;0.22;;
12966;SDS011;6548;49.996;8.238;2023-03-26T15:41:12;0.65;;;0.20;;
12966;SDS011;6548;49.996;8.238;2023-03-26T15:46:31;1.38;;;0.63;;
12966;SDS011;6548;49.996;8.238;2023-03-26T15:49:22;1.52;;;0.65;;
12966;SDS011;6548;49.996;8.238;2023-03-26T15:52:04;0.25;;;0.20;;
12966;SDS011;6548;49.996;8.238;2023-03-26T15:54:45;0.77;;;0.22;;
12966;SDS011;6548;49.996;8.238;2023-03-26T15:57:25;1.33;;;0.40;;
12966;SDS011;6548;49.996;8.238;2023-03-26T16:00:03;1.80;;;0.50;;
12966;SDS011;6548;49.996;8.238;2023-03-26T16:03:23;5.97;;;1.30;;
12966;SDS011;6548;49.996;8.238;2023-03-26T16:06:03;2.95;;;0.50;;
12966;SDS011;6548;49.996;8.238;2023-03-26T16:11:55;3.67;;;0.70;;
12966;SDS011;6548;49.996;8.238;2023-03-26T16:16:49;2.50;;;0.35;;
12966;SDS011;6548;49.996;8.238;2023-03-26T16:22:02;0.73;;;0.10;;
12966;SDS011;6548;49.996;8.238;2023-03-26T16:24:35;0.60;;;0.35;;
12966;SDS011;6548;49.996;8.238;2023-03-26T16:32:24;2.13;;;0.38;;
12966;SDS011;6548;49.996;8.238;2023-03-26T16:34:57;0.52;;;0.40;;
12966;SDS011;6548;49.996;8.238;2023-03-26T16:40:20;1.30;;;0.30;;
12966;SDS011;6548;49.996;8.238;2023-03-26T16:45:47;0.28;;;0.17;;
12966;SDS011;6548;49.996;8.238;2023-03-26T16:51:07;6.47;;;0.65;;
12966;SDS011;6548;49.996;8.238;2023-03-26T16:53:48;1.42;;;0.52;;
12966;SDS011;6548;49.996;8.238;2023-03-26T17:03:14;0.55;;;0.30;;
12966;SDS011;6548;49.996;8.238;2023-03-26T17:10:59;0.65;;;0.30;;
12966;SDS011;6548;49.996;8.238;2023-03-26T17:13:47;2.35;;;1.02;;
12966;SDS011;6548;49.996;8.238;2023-03-26T17:16:39;1.80;;;0.95;;
12966;SDS011;6548;49.996;8.238;2023-03-26T17:30:29;2.92;;;1.02;;
12966;SDS011;6548;49.996;8.238;2023-03-26T17:32:58;3.83;;;1.77;;
12966;SDS011;6548;49.996;8.238;2023-03-26T17:35:34;2.20;;;0.45;;
12966;SDS011;6548;49.996;8.238;2023-03-26T17:51:39;2.42;;;0.60;;
12966;SDS011;6548;49.996;8.238;2023-03-26T17:56:42;0.90;;;0.65;;
12966;SDS011;6548;49.996;8.238;2023-03-26T17:59:09;1.55;;;0.65;;
12966;SDS011;6548;49.996;8.238;2023-03-26T18:01:46;3.60;;;0.70;;
12966;SDS011;6548;49.996;8.238;2023-03-26T18:04:18;0.82;;;0.50;;
12966;SDS011;6548;49.996;8.238;2023-03-26T18:07:10;1.63;;;0.60;;
12966;SDS011;6548;49.996;8.238;2023-03-26T18:12:46;0.90;;;0.50;;
12966;SDS011;6548;49.996;8.238;2023-03-26T18:18:13;5.10;;;0.90;;
12966;SDS011;6548;49.996;8.238;2023-03-26T18:20:46;2.25;;;0.80;;
12966;SDS011;6548;49.996;8.238;2023-03-26T18:23:21;1.83;;;1.73;;
12966;SDS011;6548;49.996;8.238;2023-03-26T18:25:57;2.58;;;0.95;;
12966;SDS011;6548;49.996;8.238;2023-03-26T18:28:34;0.95;;;0.70;;
12966;SDS011;6548;49.996;8.238;2023-03-26T18:31:07;1.70;;;0.70;;
12966;SDS011;6548;49.996;8.238;2023-03-26T18:33:41;1.65;;;0.60;;
12966;SDS011;6548;49.996;8.238;2023-03-26T18:36:08;0.88;;;0.82;;
12966;SDS011;6548;49.996;8.238;2023-03-26T18:38:36;3.30;;;0.70;;
12966;SDS011;6548;49.996;8.238;2023-03-26T18:41:01;1.33;;;0.52;;
12966;SDS011;6548;49.996;8.238;2023-03-26T18:43:30;2.25;;;1.80;;
12966;SDS011;6548;49.996;8.238;2023-03-26T18:45:58;3.78;;;2.20;;
12966;SDS011;6548;49.996;8.238;2023-03-26T18:48:24;2.40;;;1.30;;
12966;SDS011;6548;49.996;8.238;2023-03-26T18:50:53;3.00;;;1.42;;
12966;SDS011;6548;49.996;8.238;2023-03-26T18:53:30;2.92;;;1.33;;
12966;SDS011;6548;49.996;8.238;2023-03-26T18:56:49;4.90;;;1.60;;
12966;SDS011;6548;49.996;8.238;2023-03-26T18:58:52;3.42;;;1.75;;
12966;SDS011;6548;49.996;8.238;2023-03-26T19:01:21;2.15;;;1.17;;
12966;SDS011;6548;49.996;8.238;2023-03-26T19:03:50;1.33;;;0.77;;
12966;SDS011;6548;49.996;8.238;2023-03-26T19:06:17;5.10;;;2.08;;
12966;SDS011;6548;49.996;8.238;2023-03-26T19:08:44;5.60;;;2.60;;
12966;SDS011;6548;49.996;8.238;2023-03-26T19:11:11;6.15;;;1.80;;
12966;SDS011;6548;49.996;8.238;2023-03-26T19:13:41;2.05;;;1.23;;
12966;SDS011;6548;49.996;8.238;2023-03-26T19:16:20;9.45;;;3.47;;
12966;SDS011;6548;49.996;8.238;2023-03-26T19:18:47;6.60;;;2.95;;
12966;SDS011;6548;49.996;8.238;2023-03-26T19:21:14;4.30;;;1.70;;
12966;SDS011;6548;49.996;8.238;2023-03-26T19:23:42;4.10;;;1.27;;
12966;SDS011;6548;49.996;8.238;2023-03-26T19:26:09;2.53;;;1.23;;
12966;SDS011;6548;49.996;8.238;2023-03-26T19:28:39;2.25;;;0.90;;
12966;SDS011;6548;49.996;8.238;2023-03-26T19:33:56;5.03;;;1.88;;
12966;SDS011;6548;49.996;8.238;2023-03-26T19:36:27;1.35;;;0.90;;
12966;SDS011;6548;49.996;8.238;2023-03-26T19:44:01;2.55;;;1.00;;
12966;SDS011;6548;49.996;8.238;2023-03-26T19:46:35;2.10;;;0.98;;
12966;SDS011;6548;49.996;8.238;2023-03-26T19:49:01;2.28;;;1.23;;
12966;SDS011;6548;49.996;8.238;2023-03-26T19:51:32;1.60;;;1.40;;
12966;SDS011;6548;49.996;8.238;2023-03-26T19:54:00;2.40;;;1.20;;
12966;SDS011;6548;49.996;8.238;2023-03-26T19:56:35;2.22;;;1.42;;
12966;SDS011;6548;49.996;8.238;2023-03-26T19:59:01;3.47;;;1.00;;
12966;SDS011;6548;49.996;8.238;2023-03-26T20:01:27;2.75;;;1.02;;
12966;SDS011;6548;49.996;8.238;2023-03-26T20:03:55;2.03;;;1.27;;
12966;SDS011;6548;49.996;8.238;2023-03-26T20:06:24;1.33;;;0.82;;
12966;SDS011;6548;49.996;8.238;2023-03-26T20:08:52;1.27;;;0.70;;
12966;SDS011;6548;49.996;8.238;2023-03-26T20:11:20;2.22;;;0.93;;
12966;SDS011;6548;49.996;8.238;2023-03-26T20:13:47;1.77;;;1.10;;
12966;SDS011;6548;49.996;8.238;2023-03-26T20:16:19;2.17;;;1.02;;
12966;SDS011;6548;49.996;8.238;2023-03-26T20:18:52;2.15;;;1.42;;
12966;SDS011;6548;49.996;8.238;2023-03-26T20:21:21;3.33;;;1.40;;
12966;SDS011;6548;49.996;8.238;2023-03-26T20:23:47;2.35;;;1.33;;
12966;SDS011;6548;49.996;8.238;2023-03-26T20:26:17;3.70;;;1.10;;
12966;SDS011;6548;49.996;8.238;2023-03-26T20:28:44;1.33;;;1.23;;
12966;SDS011;6548;49.996;8.238;2023-03-26T20:31:13;3.00;;;1.63;;
12966;SDS011;6548;49.996;8.238;2023-03-26T20:33:43;0.85;;;0.73;;
12966;SDS011;6548;49.996;8.238;2023-03-26T20:36:10;1.58;;;1.15;;
12966;SDS011;6548;49.996;8.238;2023-03-26T20:38:40;1.30;;;1.00;;
12966;SDS011;6548;49.996;8.238;2023-03-26T20:41:10;1.10;;;0.73;;
12966;SDS011;6548;49.996;8.238;2023-03-26T20:43:41;1.13;;;0.93;;
12966;SDS011;6548;49.996;8.238;2023-03-26T20:46:20;0.70;;;0.70;;
12966;SDS011;6548;49.996;8.238;2023-03-26T20:48:47;0.70;;;0.70;;
12966;SDS011;6548;49.996;8.238;2023-03-26T20:51:13;0.50;;;0.40;;
12966;SDS011;6548;49.996;8.238;2023-03-26T20:53:43;0.85;;;0.60;;
12966;SDS011;6548;49.996;8.238;2023-03-26T20:56:10;0.82;;;0.70;;
12966;SDS011;6548;49.996;8.238;2023-03-26T20:58:38;0.82;;;0.60;;
12966;SDS011;6548;49.996;8.238;2023-03-26T21:01:04;0.80;;;0.63;;
12966;SDS011;6548;49.996;8.238;2023-03-26T21:03:30;0.85;;;0.70;;
12966;SDS011;6548;49.996;8.238;2023-03-26T21:06:00;1.38;;;0.85;;
12966;SDS011;6548;49.996;8.238;2023-03-26T21:08:27;0.95;;;0.70;;
12966;SDS011;6548;49.996;8.238;2023-03-26T21:10:59;1.20;;;0.70;;
12966;SDS011;6548;49.996;8.238;2023-03-26T21:13:36;1.00;;;0.70;;
12966;SDS011;6548;49.996;8.238;2023-03-26T21:16:05;0.68;;;0.68;;
12966;SDS011;6548;49.996;8.238;2023-03-26T21:18:31;1.63;;;1.10;;
12966;SDS011;6548;49.996;8.238;2023-03-26T21:20:59;1.40;;;1.05;;
12966;SDS011;6548;49.996;8.238;2023-03-26T21:23:42;1.30;;;0.70;;
12966;SDS011;6548;49.996;8.238;2023-03-26T21:28:55;3.15;;;1.63;;
12966;SDS011;6548;49.996;8.238;2023-03-26T21:31:23;0.80;;;0.70;;
12966;SDS011;6548;49.996;8.238;2023-03-26T21:33:50;0.90;;;0.68;;
12966;SDS011;6548;49.996;8.238;2023-03-26T21:36:17;0.95;;;0.75;;
12966;SDS011;6548;49.996;8.238;2023-03-26T21:38:47;0.80;;;0.80;;